createdAt,value
2023-05-18T00:00:57.699Z,0.00
2023-05-18T00:01:57.700Z,0.00
2023-05-18T00:02:57.931Z,0.00
2023-05-18T00:03:57.881Z,0.00
2023-05-18T00:04:57.669Z,0.00
2023-05-18T00:05:57.671Z,0.00
2023-05-18T00:06:57.670Z,0.00
2023-05-18T00:07:57.642Z,0.00
2023-05-18T00:08:57.658Z,0.00
2023-05-18T00:09:57.708Z,0.00
2023-05-18T00:10:57.619Z,0.00
2023-05-18T00:11:57.636Z,0.00
2023-05-18T00:12:57.613Z,0.00
2023-05-18T00:13:57.620Z,0.00
2023-05-18T00:14:57.623Z,0.00
2023-05-18T00:15:57.630Z,0.00
2023-05-18T00:16:57.591Z,0.00
2023-05-18T00:17:57.615Z,0.00
2023-05-18T00:18:57.583Z,0.00
2023-05-18T00:19:57.610Z,0.00
2023-05-18T00:20:57.566Z,0.00
2023-05-18T00:21:57.561Z,0.00
2023-05-18T00:22:57.560Z,0.00
2023-05-18T00:23:57.549Z,0.00
2023-05-18T00:24:57.561Z,0.00
2023-05-18T00:25:57.540Z,0.00
2023-05-18T00:26:57.563Z,0.00
2023-05-18T00:27:57.536Z,0.00
2023-05-18T00:28:57.554Z,0.00
2023-05-18T00:29:57.532Z,0.00
2023-05-18T00:30:57.541Z,0.00
2023-05-18T00:31:57.605Z,0.00
2023-05-18T00:32:57.521Z,0.00
2023-05-18T00:33:57.479Z,0.00
2023-05-18T00:34:57.510Z,0.00
2023-05-18T00:35:57.656Z,0.00
2023-05-18T00:36:57.475Z,0.00
2023-05-18T00:37:57.461Z,0.00
2023-05-18T00:38:57.457Z,0.00
2023-05-18T00:39:57.456Z,0.00
2023-05-18T00:40:57.458Z,0.00
2023-05-18T00:41:57.470Z,0.00
2023-05-18T00:42:57.442Z,0.00
2023-05-18T00:43:57.420Z,0.00
2023-05-18T00:44:58.430Z,0.00
2023-05-18T00:45:57.432Z,0.00
2023-05-18T00:46:57.414Z,0.00
2023-05-18T00:47:57.422Z,0.00
2023-05-18T00:48:57.410Z,0.00
2023-05-18T00:49:57.385Z,0.00
2023-05-18T00:50:57.365Z,0.00
2023-05-18T00:51:58.385Z,0.00
2023-05-18T00:52:57.357Z,0.00
2023-05-18T00:53:57.386Z,0.00
2023-05-18T00:54:57.349Z,0.00
2023-05-18T00:55:57.358Z,0.00
2023-05-18T00:56:57.369Z,0.00
2023-05-18T00:57:57.331Z,0.00
2023-05-18T00:58:57.472Z,0.00
2023-05-18T00:59:58.330Z,0.00
2023-05-18T01:00:57.334Z,0.00
2023-05-18T01:01:57.387Z,0.00
2023-05-18T01:02:57.457Z,0.00
2023-05-18T01:03:57.305Z,0.00
2023-05-18T01:04:57.285Z,0.00
2023-05-18T01:05:57.270Z,0.00
2023-05-18T01:06:57.276Z,0.00
2023-05-18T01:07:57.287Z,0.00
2023-05-18T01:08:57.257Z,0.00
2023-05-18T01:09:57.276Z,0.00
2023-05-18T01:10:57.255Z,0.00
2023-05-18T01:11:57.249Z,0.00
2023-05-18T01:12:57.291Z,0.00
2023-05-18T01:13:57.224Z,0.00
2023-05-18T01:14:57.216Z,0.00
2023-05-18T01:15:57.224Z,0.00
2023-05-18T01:16:57.247Z,0.00
2023-05-18T01:17:57.272Z,0.00
2023-05-18T01:18:57.229Z,0.00
2023-05-18T01:19:57.182Z,0.00
2023-05-18T01:20:57.187Z,0.00
2023-05-18T01:21:57.173Z,0.00
2023-05-18T01:22:57.174Z,0.00
2023-05-18T01:23:57.184Z,0.00
2023-05-18T01:24:57.149Z,0.00
2023-05-18T01:25:57.152Z,0.00
2023-05-18T01:26:57.146Z,0.00
2023-05-18T01:27:57.150Z,0.00
2023-05-18T01:28:57.157Z,0.00
2023-05-18T01:29:57.120Z,0.00
2023-05-18T01:30:57.134Z,0.00
2023-05-18T01:31:57.109Z,0.00
2023-05-18T01:32:57.146Z,0.00
2023-05-18T01:33:57.111Z,0.00
2023-05-18T01:34:57.090Z,0.00
2023-05-18T01:35:57.107Z,0.00
2023-05-18T01:36:57.081Z,0.00
2023-05-18T01:37:57.081Z,0.00
2023-05-18T01:38:57.070Z,0.00
2023-05-18T01:39:57.068Z,0.00
2023-05-18T01:40:57.066Z,0.00
2023-05-18T01:41:57.058Z,0.00
2023-05-18T01:42:57.041Z,0.00
2023-05-18T01:43:57.039Z,0.00
2023-05-18T01:44:57.039Z,0.00
2023-05-18T01:45:57.088Z,0.00
2023-05-18T01:46:57.041Z,0.00
2023-05-18T01:47:57.033Z,0.00
2023-05-18T01:48:57.007Z,0.00
2023-05-18T01:49:57.000Z,0.00
2023-05-18T01:50:56.992Z,0.00
2023-05-18T01:51:56.992Z,0.00
2023-05-18T01:52:57.966Z,0.00
2023-05-18T01:53:56.969Z,0.00
2023-05-18T01:54:56.964Z,0.00
2023-05-18T01:55:56.981Z,0.00
2023-05-18T01:56:56.959Z,0.00
2023-05-18T01:57:56.941Z,0.00
2023-05-18T01:58:56.941Z,0.00
2023-05-18T01:59:56.926Z,0.00
2023-05-18T02:00:56.925Z,0.00
2023-05-18T02:01:59.378Z,0.00
2023-05-18T02:02:57.037Z,0.00
2023-05-18T02:03:57.040Z,0.00
2023-05-18T02:04:56.898Z,0.00
2023-05-18T02:05:56.897Z,0.00
2023-05-18T02:06:56.887Z,0.00
2023-05-18T02:07:56.920Z,0.00
2023-05-18T02:08:56.882Z,0.00
2023-05-18T02:09:56.866Z,0.00
2023-05-18T02:10:56.867Z,0.00
2023-05-18T02:11:56.857Z,0.00
2023-05-18T02:12:56.842Z,0.00
2023-05-18T02:13:56.843Z,0.00
2023-05-18T02:14:56.838Z,0.00
2023-05-18T02:15:56.855Z,0.00
2023-05-18T02:16:56.836Z,0.00
2023-05-18T02:17:56.930Z,0.00
2023-05-18T02:18:56.841Z,0.00
2023-05-18T02:19:56.804Z,0.00
2023-05-18T02:20:56.787Z,0.00
2023-05-18T02:21:56.778Z,0.00
2023-05-18T02:22:56.808Z,0.00
2023-05-18T02:23:56.771Z,0.00
2023-05-18T02:24:56.779Z,0.00
2023-05-18T02:25:56.751Z,0.00
2023-05-18T02:26:56.747Z,0.00
2023-05-18T02:27:56.747Z,0.00
2023-05-18T02:28:56.748Z,0.00
2023-05-18T02:29:56.762Z,0.00
2023-05-18T02:30:56.724Z,0.00
2023-05-18T02:31:56.738Z,0.00
2023-05-18T02:32:56.714Z,0.00
2023-05-18T02:33:56.701Z,0.00
2023-05-18T02:34:56.686Z,0.00
2023-05-18T02:35:56.743Z,0.00
2023-05-18T02:36:56.681Z,0.00
2023-05-18T02:37:56.673Z,0.00
2023-05-18T02:38:56.659Z,0.00
2023-05-18T02:39:56.647Z,0.00
2023-05-18T02:40:56.669Z,0.00
2023-05-18T02:41:56.665Z,0.00
2023-05-18T02:42:56.650Z,0.00
2023-05-18T02:43:56.661Z,0.00
2023-05-18T02:44:56.632Z,0.00
2023-05-18T02:45:56.693Z,0.00
2023-05-18T02:46:56.609Z,0.00
2023-05-18T02:47:56.681Z,0.00
2023-05-18T02:48:56.597Z,0.00
2023-05-18T02:49:56.599Z,0.00
2023-05-18T02:50:56.596Z,0.00
2023-05-18T02:51:56.588Z,0.00
2023-05-18T02:52:56.576Z,0.00
2023-05-18T02:53:56.571Z,0.00
2023-05-18T02:54:56.581Z,0.00
2023-05-18T02:55:56.559Z,0.00
2023-05-18T02:56:56.557Z,0.00
2023-05-18T02:57:56.552Z,0.00
2023-05-18T02:58:56.555Z,0.00
2023-05-18T02:59:56.548Z,0.00
2023-05-18T03:00:56.547Z,0.00
2023-05-18T03:01:56.532Z,0.00
2023-05-18T03:02:56.627Z,0.00
2023-05-18T03:03:56.528Z,0.00
2023-05-18T03:04:56.514Z,0.00
2023-05-18T03:05:56.505Z,0.00
2023-05-18T03:06:56.490Z,0.00
2023-05-18T03:07:56.489Z,0.00
2023-05-18T03:08:56.483Z,0.00
2023-05-18T03:09:56.483Z,0.00
2023-05-18T03:10:56.465Z,0.00
2023-05-18T03:11:56.465Z,0.00
2023-05-18T03:12:56.456Z,0.00
2023-05-18T03:13:56.471Z,0.00
2023-05-18T03:14:56.469Z,0.00
2023-05-18T03:15:56.441Z,0.00
2023-05-18T03:16:56.434Z,0.00
2023-05-18T03:17:56.478Z,0.00
2023-05-18T03:18:56.450Z,0.00
2023-05-18T03:19:56.423Z,0.00
2023-05-18T03:20:56.408Z,0.00
2023-05-18T03:21:56.391Z,0.00
2023-05-18T03:22:56.400Z,0.00
2023-05-18T03:23:56.382Z,0.00
2023-05-18T03:24:56.383Z,0.00
2023-05-18T03:25:56.375Z,0.00
2023-05-18T03:26:56.365Z,0.00
2023-05-18T03:27:56.371Z,5.62
2023-05-18T03:28:56.355Z,5.62
2023-05-18T03:29:56.363Z,5.62
2023-05-18T03:30:56.361Z,5.62
2023-05-18T03:31:56.383Z,5.62
2023-05-18T03:32:56.402Z,5.62
2023-05-18T03:33:56.358Z,5.62
2023-05-18T03:34:56.307Z,5.62
2023-05-18T03:35:56.482Z,5.62
2023-05-18T03:36:56.299Z,5.62
2023-05-18T03:37:56.325Z,5.62
2023-05-18T03:38:56.288Z,11.25
2023-05-18T03:39:56.272Z,11.25
2023-05-18T03:40:56.291Z,11.25
2023-05-18T03:41:56.256Z,11.25
2023-05-18T03:42:56.260Z,11.25
2023-05-18T03:43:56.282Z,11.25
2023-05-18T03:44:56.236Z,11.25
2023-05-18T03:45:56.277Z,11.25
2023-05-18T03:46:56.222Z,16.88
2023-05-18T03:47:56.247Z,16.88
2023-05-18T03:48:56.238Z,16.88
2023-05-18T03:49:56.214Z,16.88
2023-05-18T03:50:56.191Z,16.88
2023-05-18T03:51:56.184Z,16.88
2023-05-18T03:52:57.200Z,16.88
2023-05-18T03:53:56.178Z,22.50
2023-05-18T03:54:56.175Z,22.50
2023-05-18T03:55:56.163Z,22.50
2023-05-18T03:56:56.152Z,22.50
2023-05-18T03:57:56.146Z,22.50
2023-05-18T03:58:56.140Z,22.50
2023-05-18T03:59:56.157Z,22.50
2023-05-18T04:00:56.129Z,28.12
2023-05-18T04:01:56.238Z,28.12
2023-05-18T04:02:56.173Z,28.12
2023-05-18T04:03:56.174Z,28.12
2023-05-18T04:04:56.500Z,28.12
2023-05-18T04:05:56.095Z,28.12
2023-05-18T04:06:56.097Z,33.75
2023-05-18T04:07:56.083Z,33.75
2023-05-18T04:08:56.098Z,33.75
2023-05-18T04:09:56.094Z,33.75
2023-05-18T04:10:56.102Z,33.75
2023-05-18T04:11:56.057Z,39.38
2023-05-18T04:12:56.048Z,39.38
2023-05-18T04:13:56.054Z,39.38
2023-05-18T04:14:56.047Z,39.38
2023-05-18T04:15:56.052Z,39.38
2023-05-18T04:16:56.123Z,45.00
2023-05-18T04:17:56.036Z,45.00
2023-05-18T04:18:56.067Z,45.00
2023-05-18T04:19:56.017Z,50.62
2023-05-18T04:20:55.994Z,50.62
2023-05-18T04:21:55.989Z,50.62
2023-05-18T04:22:55.995Z,50.62
2023-05-18T04:23:55.988Z,50.62
2023-05-18T04:24:55.969Z,50.62
2023-05-18T04:25:55.978Z,50.62
2023-05-18T04:26:55.981Z,50.62
2023-05-18T04:27:56.027Z,56.25
2023-05-18T04:28:55.956Z,56.25
2023-05-18T04:29:55.933Z,56.25
2023-05-18T04:30:55.932Z,56.25
2023-05-18T04:31:55.991Z,56.25
2023-05-18T04:32:55.932Z,56.25
2023-05-18T04:33:55.930Z,61.88
2023-05-18T04:34:55.922Z,61.88
2023-05-18T04:35:55.913Z,61.88
2023-05-18T04:36:55.905Z,67.50
2023-05-18T04:37:55.888Z,67.50
2023-05-18T04:38:55.916Z,67.50
2023-05-18T04:39:55.892Z,67.50
2023-05-18T04:40:55.868Z,73.12
2023-05-18T04:41:55.859Z,73.12
2023-05-18T04:42:55.852Z,73.12
2023-05-18T04:43:55.848Z,78.75
2023-05-18T04:44:55.859Z,78.75
2023-05-18T04:45:55.880Z,78.75
2023-05-18T04:46:56.830Z,84.38
2023-05-18T04:47:55.879Z,84.38
2023-05-18T04:48:55.815Z,90.00
2023-05-18T04:49:55.818Z,90.00
2023-05-18T04:50:55.902Z,95.62
2023-05-18T04:51:55.803Z,95.62
2023-05-18T04:52:55.791Z,95.62
2023-05-18T04:53:55.812Z,101.25
2023-05-18T04:54:55.776Z,101.25
2023-05-18T04:55:55.794Z,101.25
2023-05-18T04:56:55.769Z,101.25
2023-05-18T04:57:55.770Z,106.88
2023-05-18T04:58:55.753Z,106.88
2023-05-18T04:59:55.854Z,106.88
2023-05-18T05:00:55.771Z,106.88
2023-05-18T05:01:55.775Z,112.50
2023-05-18T05:02:55.848Z,112.50
2023-05-18T05:03:58.246Z,112.50
2023-05-18T05:04:55.707Z,112.50
2023-05-18T05:05:55.696Z,118.12
2023-05-18T05:06:55.722Z,118.12
2023-05-18T05:07:55.774Z,118.12
2023-05-18T05:08:55.718Z,118.12
2023-05-18T05:09:55.691Z,123.75
2023-05-18T05:10:55.694Z,123.75
2023-05-18T05:11:55.688Z,123.75
2023-05-18T05:12:55.665Z,123.75
2023-05-18T05:13:55.665Z,123.75
2023-05-18T05:14:55.648Z,129.38
2023-05-18T05:15:55.677Z,129.38
2023-05-18T05:16:55.640Z,129.38
2023-05-18T05:17:55.858Z,129.38
2023-05-18T05:18:55.654Z,129.38
2023-05-18T05:19:55.617Z,129.38
2023-05-18T05:20:55.606Z,129.38
2023-05-18T05:21:55.605Z,129.38
2023-05-18T05:22:55.616Z,135.00
2023-05-18T05:23:55.603Z,135.00
2023-05-18T05:24:55.585Z,135.00
2023-05-18T05:25:55.572Z,135.00
2023-05-18T05:26:55.585Z,140.62
2023-05-18T05:27:55.584Z,140.62
2023-05-18T05:28:55.552Z,140.62
2023-05-18T05:29:55.551Z,140.62
2023-05-18T05:30:55.556Z,140.62
2023-05-18T05:31:55.632Z,140.62
2023-05-18T05:32:55.599Z,146.25
2023-05-18T05:33:55.544Z,146.25
2023-05-18T05:34:55.514Z,151.88
2023-05-18T05:35:55.501Z,151.88
2023-05-18T05:36:55.519Z,157.50
2023-05-18T05:37:55.499Z,157.50
2023-05-18T05:38:55.500Z,157.50
2023-05-18T05:39:55.500Z,163.12
2023-05-18T05:40:55.476Z,163.12
2023-05-18T05:41:55.481Z,168.75
2023-05-18T05:42:55.491Z,168.75
2023-05-18T05:43:55.462Z,168.75
2023-05-18T05:44:55.447Z,174.38
2023-05-18T05:45:55.449Z,174.38
2023-05-18T05:46:55.456Z,174.38
2023-05-18T05:47:55.502Z,180.00
2023-05-18T05:48:55.444Z,180.00
2023-05-18T05:49:55.416Z,180.00
2023-05-18T05:50:55.409Z,185.62
2023-05-18T05:51:55.436Z,185.62
2023-05-18T05:52:55.399Z,185.62
2023-05-18T05:53:55.404Z,191.25
2023-05-18T05:54:55.388Z,191.25
2023-05-18T05:55:55.384Z,191.25
2023-05-18T05:56:55.387Z,196.88
2023-05-18T05:57:55.369Z,196.88
2023-05-18T05:58:55.378Z,196.88
2023-05-18T05:59:55.383Z,196.88
2023-05-18T06:00:55.354Z,196.88
2023-05-18T06:01:55.363Z,196.88
2023-05-18T06:02:55.377Z,196.88
2023-05-18T06:03:55.400Z,202.50
2023-05-18T06:04:55.340Z,202.50
2023-05-18T06:05:55.350Z,202.50
2023-05-18T06:06:55.312Z,208.12
2023-05-18T06:07:55.314Z,208.12
2023-05-18T06:08:55.304Z,213.75
2023-05-18T06:09:55.322Z,213.75
2023-05-18T06:10:55.287Z,219.38
2023-05-18T06:11:55.297Z,219.38
2023-05-18T06:12:55.275Z,225.00
2023-05-18T06:13:55.278Z,230.62
2023-05-18T06:14:55.267Z,230.62
2023-05-18T06:15:55.258Z,230.62
2023-05-18T06:16:55.749Z,230.62
2023-05-18T06:17:55.794Z,230.62
2023-05-18T06:18:55.263Z,236.25
2023-05-18T06:19:55.588Z,241.88
2023-05-18T06:20:55.378Z,241.88
2023-05-18T06:21:55.256Z,247.50
2023-05-18T06:22:55.202Z,253.12
2023-05-18T06:23:55.202Z,253.12
2023-05-18T06:24:55.180Z,258.75
2023-05-18T06:25:55.187Z,258.75
2023-05-18T06:26:55.497Z,264.38
2023-05-18T06:27:55.172Z,275.62
2023-05-18T06:28:55.163Z,281.25
2023-05-18T06:29:55.159Z,286.88
2023-05-18T06:30:55.156Z,286.88
2023-05-18T06:31:55.199Z,286.88
2023-05-18T06:32:55.177Z,298.12
2023-05-18T06:33:55.121Z,298.12
2023-05-18T06:34:55.121Z,303.75
2023-05-18T06:35:55.123Z,303.75
2023-05-18T06:36:55.142Z,303.75
2023-05-18T06:37:55.100Z,309.38
2023-05-18T06:38:55.121Z,320.62
2023-05-18T06:39:55.103Z,365.62
2023-05-18T06:40:55.087Z,511.88
2023-05-18T06:41:55.103Z,663.75
2023-05-18T06:42:55.068Z,703.12
2023-05-18T06:43:55.066Z,776.25
2023-05-18T06:44:55.067Z,961.88
2023-05-18T06:45:55.063Z,1057.50
2023-05-18T06:46:55.039Z,1147.50
2023-05-18T06:47:55.129Z,1130.62
2023-05-18T06:48:55.046Z,1023.75
2023-05-18T06:49:55.027Z,984.38
2023-05-18T06:50:55.617Z,860.62
2023-05-18T06:51:55.081Z,759.38
2023-05-18T06:52:55.022Z,669.38
2023-05-18T06:53:55.008Z,613.12
2023-05-18T06:54:55.999Z,658.12
2023-05-18T06:55:54.985Z,680.62
2023-05-18T06:56:54.994Z,646.88
2023-05-18T06:57:54.991Z,618.75
2023-05-18T06:58:54.991Z,596.25
2023-05-18T06:59:54.958Z,613.12
2023-05-18T07:00:54.958Z,601.88
2023-05-18T07:01:55.029Z,568.12
2023-05-18T07:02:54.983Z,556.88
2023-05-18T07:03:54.988Z,545.62
2023-05-18T07:04:54.920Z,573.75
2023-05-18T07:05:54.915Z,590.62
2023-05-18T07:06:54.898Z,562.50
2023-05-18T07:07:54.979Z,540.00
2023-05-18T07:08:54.898Z,511.88
2023-05-18T07:09:54.883Z,545.62
2023-05-18T07:10:54.903Z,573.75
2023-05-18T07:11:54.885Z,545.62
2023-05-18T07:12:54.875Z,534.38
2023-05-18T07:13:54.870Z,540.00
2023-05-18T07:14:54.861Z,551.25
2023-05-18T07:15:54.853Z,579.38
2023-05-18T07:16:54.840Z,573.75
2023-05-18T07:17:55.145Z,551.25
2023-05-18T07:18:54.880Z,551.25
2023-05-18T07:19:54.806Z,624.38
2023-05-18T07:20:54.802Z,658.12
2023-05-18T07:21:54.806Z,652.50
2023-05-18T07:22:54.832Z,641.25
2023-05-18T07:23:54.852Z,635.62
2023-05-18T07:24:54.788Z,624.38
2023-05-18T07:25:54.777Z,596.25
2023-05-18T07:26:54.764Z,573.75
2023-05-18T07:27:54.881Z,596.25
2023-05-18T07:28:54.787Z,646.88
2023-05-18T07:29:54.756Z,708.75
2023-05-18T07:30:54.741Z,675.00
2023-05-18T07:31:54.826Z,613.12
2023-05-18T07:32:54.735Z,596.25
2023-05-18T07:33:54.961Z,607.50
2023-05-18T07:34:54.714Z,630.00
2023-05-18T07:35:54.707Z,641.25
2023-05-18T07:36:54.699Z,669.38
2023-05-18T07:37:54.702Z,691.88
2023-05-18T07:38:54.708Z,691.88
2023-05-18T07:39:54.686Z,714.38
2023-05-18T07:40:54.660Z,765.00
2023-05-18T07:41:54.653Z,776.25
2023-05-18T07:42:54.643Z,753.75
2023-05-18T07:43:54.642Z,770.62
2023-05-18T07:44:54.645Z,798.75
2023-05-18T07:45:54.642Z,843.75
2023-05-18T07:46:54.678Z,855.00
2023-05-18T07:47:54.657Z,928.12
2023-05-18T07:48:54.635Z,1333.12
2023-05-18T07:49:54.622Z,1732.50
2023-05-18T07:50:54.593Z,1749.38
2023-05-18T07:51:54.582Z,1698.75
2023-05-18T07:52:54.580Z,1693.12
2023-05-18T07:53:54.581Z,1715.62
2023-05-18T07:54:54.566Z,1794.38
2023-05-18T07:55:54.582Z,1760.62
2023-05-18T07:56:54.578Z,1726.88
2023-05-18T07:57:54.547Z,1681.88
2023-05-18T07:58:54.578Z,1766.25
2023-05-18T07:59:54.540Z,1794.38
2023-05-18T08:00:54.571Z,1693.12
2023-05-18T08:01:54.549Z,1501.88
2023-05-18T08:02:54.629Z,1496.25
2023-05-18T08:03:54.638Z,1513.12
2023-05-18T08:04:54.506Z,1490.62
2023-05-18T08:05:54.498Z,1518.75
2023-05-18T08:06:54.510Z,1468.12
2023-05-18T08:07:54.485Z,1417.50
2023-05-18T08:08:54.477Z,1440.00
2023-05-18T08:09:54.470Z,1530.00
2023-05-18T08:10:54.502Z,1546.88
2023-05-18T08:11:54.463Z,1496.25
2023-05-18T08:12:54.469Z,1468.12
2023-05-18T08:13:54.434Z,1400.62
2023-05-18T08:14:55.437Z,1366.88
2023-05-18T08:16:09.934Z,1366.88
2023-05-18T08:16:56.472Z,1355.62
2023-05-18T08:17:54.463Z,1350.00
2023-05-18T08:18:54.430Z,1316.25
2023-05-18T08:19:54.412Z,1316.25
2023-05-18T08:20:54.393Z,1338.75
2023-05-18T08:21:54.413Z,1417.50
2023-05-18T08:22:54.409Z,1383.75
2023-05-18T08:23:54.387Z,1338.75
2023-05-18T08:24:54.369Z,1293.75
2023-05-18T08:25:54.379Z,1321.88
2023-05-18T08:26:54.374Z,1299.38
2023-05-18T08:27:54.372Z,1305.00
2023-05-18T08:28:54.343Z,1299.38
2023-05-18T08:29:54.333Z,1327.50
2023-05-18T08:30:54.339Z,1321.88
2023-05-18T08:31:54.407Z,1288.12
2023-05-18T08:32:54.385Z,1288.12
2023-05-18T08:33:54.324Z,1321.88
2023-05-18T08:34:54.331Z,1321.88
2023-05-18T08:35:54.303Z,1299.38
2023-05-18T08:36:54.298Z,1215.00
2023-05-18T08:37:54.298Z,1243.12
2023-05-18T08:38:54.283Z,1327.50
2023-05-18T08:39:54.312Z,1389.38
2023-05-18T08:40:54.292Z,1507.50
2023-05-18T08:41:54.268Z,1485.00
2023-05-18T08:42:54.262Z,1445.62
2023-05-18T08:43:54.247Z,1479.38
2023-05-18T08:44:54.258Z,1445.62
2023-05-18T08:45:54.233Z,1468.12
2023-05-18T08:46:54.233Z,1445.62
2023-05-18T08:47:54.277Z,1513.12
2023-05-18T08:48:54.303Z,1428.75
2023-05-18T08:49:54.221Z,1490.62
2023-05-18T08:50:54.207Z,1507.50
2023-05-18T08:51:54.238Z,1552.50
2023-05-18T08:52:54.226Z,1625.62
2023-05-18T08:53:54.230Z,1535.62
2023-05-18T08:54:54.190Z,1012.50
2023-05-18T08:55:54.177Z,765.00
2023-05-18T08:56:54.157Z,714.38
2023-05-18T08:57:54.171Z,652.50
2023-05-18T08:58:54.156Z,528.75
2023-05-18T08:59:54.320Z,528.75
2023-05-18T09:00:54.162Z,568.12
2023-05-18T09:01:54.153Z,804.38
2023-05-18T09:02:54.151Z,731.25
2023-05-18T09:03:54.115Z,680.62
2023-05-18T09:04:54.165Z,630.00
2023-05-18T09:05:54.130Z,1063.12
2023-05-18T09:06:54.113Z,1350.00
2023-05-18T09:07:54.089Z,1001.25
2023-05-18T09:08:54.105Z,793.12
2023-05-18T09:09:54.077Z,1501.88
2023-05-18T09:10:54.088Z,534.38
2023-05-18T09:11:54.097Z,534.38
2023-05-18T09:12:54.085Z,517.50
2023-05-18T09:13:54.050Z,523.12
2023-05-18T09:14:54.064Z,523.12
2023-05-18T09:15:54.081Z,562.50
2023-05-18T09:16:54.048Z,528.75
2023-05-18T09:17:54.055Z,590.62
2023-05-18T09:18:54.054Z,579.38
2023-05-18T09:19:54.017Z,545.62
2023-05-18T09:20:54.012Z,528.75
2023-05-18T09:21:54.019Z,528.75
2023-05-18T09:22:53.996Z,545.62
2023-05-18T09:23:54.000Z,545.62
2023-05-18T09:24:53.991Z,511.88
2023-05-18T09:25:53.974Z,506.25
2023-05-18T09:26:53.988Z,511.88
2023-05-18T09:27:53.968Z,523.12
2023-05-18T09:28:53.962Z,556.88
2023-05-18T09:29:53.945Z,1248.75
2023-05-18T09:30:53.947Z,973.12
2023-05-18T09:31:54.032Z,579.38
2023-05-18T09:32:54.071Z,528.75
2023-05-18T09:33:53.978Z,613.12
2023-05-18T09:34:53.935Z,708.75
2023-05-18T09:35:53.919Z,556.88
2023-05-18T09:36:54.004Z,523.12
2023-05-18T09:37:53.896Z,528.75
2023-05-18T09:38:53.918Z,607.50
2023-05-18T09:39:53.884Z,945.00
2023-05-18T09:40:53.873Z,759.38
2023-05-18T09:41:53.869Z,1310.62
2023-05-18T09:42:54.009Z,613.12
2023-05-18T09:43:53.870Z,528.75
2023-05-18T09:44:53.848Z,511.88
2023-05-18T09:45:53.866Z,500.62
2023-05-18T09:46:53.889Z,511.88
2023-05-18T09:47:53.967Z,568.12
2023-05-18T09:48:53.848Z,489.38
2023-05-18T09:49:53.818Z,495.00
2023-05-18T09:50:53.835Z,517.50
2023-05-18T09:51:53.824Z,545.62
2023-05-18T09:52:53.831Z,601.88
2023-05-18T09:53:53.794Z,1350.00
2023-05-18T09:54:53.780Z,843.75
2023-05-18T09:55:53.784Z,1698.75
2023-05-18T09:57:08.867Z,1771.88
2023-05-18T09:57:55.822Z,1575.00
2023-05-18T09:58:53.867Z,590.62
2023-05-18T09:59:53.754Z,551.25
2023-05-18T10:00:53.869Z,1119.38
2023-05-18T10:01:53.764Z,770.62
2023-05-18T10:02:53.976Z,1203.75
2023-05-18T10:03:53.836Z,551.25
2023-05-18T10:04:53.770Z,551.25
2023-05-18T10:05:53.747Z,1620.00
2023-05-18T10:06:53.749Z,1344.38
2023-05-18T10:07:53.762Z,1715.62
2023-05-18T10:08:53.770Z,1715.62
2023-05-18T10:09:53.782Z,590.62
2023-05-18T10:10:53.769Z,607.50
2023-05-18T10:11:53.750Z,1507.50
2023-05-18T10:12:53.712Z,1681.88
2023-05-18T10:13:53.682Z,776.25
2023-05-18T10:14:53.662Z,618.75
2023-05-18T10:15:53.686Z,646.88
2023-05-18T10:17:03.436Z,1704.38
2023-05-18T10:17:55.712Z,770.62
2023-05-18T10:18:53.666Z,618.75
2023-05-18T10:19:53.634Z,1091.25
2023-05-18T10:20:53.641Z,1428.75
2023-05-18T10:21:53.648Z,1620.00
2023-05-18T10:22:53.633Z,1726.88
2023-05-18T10:23:53.628Z,1158.75
2023-05-18T10:24:53.612Z,624.38
2023-05-18T10:25:53.612Z,590.62
2023-05-18T10:26:54.686Z,613.12
2023-05-18T10:27:53.651Z,590.62
2023-05-18T10:28:53.668Z,585.00
2023-05-18T10:29:53.577Z,1018.12
2023-05-18T10:30:53.608Z,652.50
2023-05-18T10:31:53.561Z,635.62
2023-05-18T10:32:53.623Z,669.38
2023-05-18T10:33:53.584Z,652.50
2023-05-18T10:34:53.544Z,658.12
2023-05-18T10:35:53.551Z,675.00
2023-05-18T10:36:53.537Z,978.75
2023-05-18T10:37:53.533Z,1631.25
2023-05-18T10:38:53.571Z,1451.25
2023-05-18T10:39:53.538Z,1715.62
2023-05-18T10:40:53.522Z,1631.25
2023-05-18T10:41:53.524Z,635.62
2023-05-18T10:42:53.521Z,562.50
2023-05-18T10:43:53.498Z,545.62
2023-05-18T10:44:53.485Z,568.12
2023-05-18T10:45:53.579Z,1265.62
2023-05-18T10:46:53.554Z,652.50
2023-05-18T10:47:53.540Z,1648.12
2023-05-18T10:48:53.473Z,1687.50
2023-05-18T10:49:53.457Z,1755.00
2023-05-18T10:50:53.539Z,618.75
2023-05-18T10:51:53.442Z,748.12
2023-05-18T10:52:53.446Z,579.38
2023-05-18T10:53:55.792Z,579.38
2023-05-18T10:54:54.426Z,579.38
2023-05-18T10:55:53.415Z,590.62
2023-05-18T10:56:53.438Z,703.12
2023-05-18T10:57:53.416Z,1698.75
2023-05-18T10:58:53.397Z,967.50
2023-05-18T10:59:53.392Z,635.62
2023-05-18T11:00:53.389Z,658.12
2023-05-18T11:01:54.227Z,1563.75
2023-05-18T11:02:53.458Z,1265.62
2023-05-18T11:03:53.373Z,1462.50
2023-05-18T11:04:54.270Z,1473.75
2023-05-18T11:05:54.368Z,1473.75
2023-05-18T11:06:53.383Z,1456.88
2023-05-18T11:07:53.404Z,1198.12
2023-05-18T11:08:53.365Z,961.88
2023-05-18T11:09:53.345Z,714.38
2023-05-18T11:10:53.327Z,630.00
2023-05-18T11:11:53.318Z,613.12
2023-05-18T11:12:53.314Z,601.88
2023-05-18T11:13:53.335Z,590.62
2023-05-18T11:14:53.299Z,585.00
2023-05-18T11:15:53.396Z,585.00
2023-05-18T11:16:53.368Z,585.00
2023-05-18T11:17:53.346Z,585.00
2023-05-18T11:18:53.300Z,579.38
2023-05-18T11:19:53.288Z,585.00
2023-05-18T11:20:53.267Z,590.62
2023-05-18T11:21:53.253Z,596.25
2023-05-18T11:22:53.265Z,607.50
2023-05-18T11:23:53.390Z,613.12
2023-05-18T11:24:53.250Z,613.12
2023-05-18T11:25:53.235Z,613.12
2023-05-18T11:26:53.240Z,613.12
2023-05-18T11:27:53.212Z,624.38
2023-05-18T11:28:53.229Z,618.75
2023-05-18T11:30:03.843Z,545.62
2023-05-18T11:30:55.204Z,590.62
2023-05-18T11:31:53.263Z,596.25
2023-05-18T11:32:53.253Z,613.12
2023-05-18T11:33:53.191Z,635.62
2023-05-18T11:34:53.203Z,635.62
2023-05-18T11:35:53.173Z,630.00
2023-05-18T11:36:53.174Z,590.62
2023-05-18T11:37:53.185Z,635.62
2023-05-18T11:38:53.181Z,635.62
2023-05-18T11:40:00.080Z,630.00
2023-05-18T11:40:55.127Z,607.50
2023-05-18T11:41:53.157Z,573.75
2023-05-18T11:42:53.114Z,562.50
2023-05-18T11:43:53.108Z,573.75
2023-05-18T11:44:53.111Z,568.12
2023-05-18T11:45:53.108Z,523.12
2023-05-18T11:46:53.136Z,556.88
2023-05-18T11:47:53.209Z,562.50
2023-05-18T11:48:53.137Z,568.12
2023-05-18T11:49:54.136Z,573.75
2023-05-18T11:50:53.229Z,579.38
2023-05-18T11:51:53.074Z,585.00
2023-05-18T11:52:53.082Z,590.62
2023-05-18T11:53:53.063Z,596.25
2023-05-18T11:54:53.086Z,590.62
2023-05-18T11:55:53.056Z,596.25
2023-05-18T11:56:53.072Z,590.62
2023-05-18T11:57:53.216Z,573.75
2023-05-18T11:58:53.018Z,573.75
2023-05-18T11:59:53.012Z,596.25
2023-05-18T12:00:53.008Z,607.50
2023-05-18T12:01:53.049Z,590.62
2023-05-18T12:02:53.175Z,579.38
2023-05-18T12:03:53.081Z,540.00
2023-05-18T12:04:53.040Z,579.38
2023-05-18T12:05:52.983Z,568.12
2023-05-18T12:06:52.978Z,562.50
2023-05-18T12:07:53.000Z,568.12
2023-05-18T12:08:52.954Z,568.12
2023-05-18T12:09:53.018Z,562.50
2023-05-18T12:10:54.760Z,556.88
2023-05-18T12:11:52.937Z,556.88
2023-05-18T12:12:52.952Z,562.50
2023-05-18T12:13:52.939Z,562.50
2023-05-18T12:14:52.923Z,562.50
2023-05-18T12:15:52.919Z,562.50
2023-05-18T12:16:52.963Z,556.88
2023-05-18T12:17:52.955Z,579.38
2023-05-18T12:18:52.933Z,590.62
2023-05-18T12:19:52.896Z,601.88
2023-05-18T12:20:53.882Z,607.50
2023-05-18T12:21:52.879Z,551.25
2023-05-18T12:22:52.994Z,556.88
2023-05-18T12:23:52.895Z,562.50
2023-05-18T12:24:52.870Z,568.12
2023-05-18T12:25:52.882Z,551.25
2023-05-18T12:26:52.855Z,551.25
2023-05-18T12:27:52.903Z,596.25
2023-05-18T12:28:52.851Z,613.12
2023-05-18T12:29:52.836Z,607.50
2023-05-18T12:30:52.876Z,607.50
2023-05-18T12:31:52.820Z,601.88
2023-05-18T12:32:52.846Z,596.25
2023-05-18T12:33:52.832Z,573.75
2023-05-18T12:34:52.796Z,540.00
2023-05-18T12:35:52.803Z,534.38
2023-05-18T12:36:52.808Z,534.38
2023-05-18T12:37:52.781Z,534.38
2023-05-18T12:38:52.789Z,528.75
2023-05-18T12:39:52.790Z,523.12
2023-05-18T12:40:52.773Z,517.50